sensor_id;sensor_type;location;lat;lon;timestamp;P1;durP1;ratioP1;P2;durP2;ratioP2
40609;SDS011;26316;55.976;37.140;2023-08-20T00:00:16;17.25;;;9.52;;
40609;SDS011;26316;55.976;37.140;2023-08-20T00:02:42;10.15;;;8.90;;
40609;SDS011;26316;55.976;37.140;2023-08-20T00:05:09;13.73;;;8.93;;
40609;SDS011;26316;55.976;37.140;2023-08-20T00:07:35;11.40;;;8.75;;
40609;SDS011;26316;55.976;37.140;2023-08-20T00:10:02;10.73;;;8.88;;
40609;SDS011;26316;55.976;37.140;2023-08-20T00:12:30;10.73;;;8.93;;
40609;SDS011;26316;55.976;37.140;2023-08-20T00:14:58;11.43;;;8.80;;
40609;SDS011;26316;55.976;37.140;2023-08-20T00:17:32;10.85;;;8.05;;
40609;SDS011;26316;55.976;37.140;2023-08-20T00:20:00;16.33;;;9.18;;
40609;SDS011;26316;55.976;37.140;2023-08-20T00:22:26;14.82;;;9.30;;
40609;SDS011;26316;55.976;37.140;2023-08-20T00:24:53;10.63;;;8.43;;
40609;SDS011;26316;55.976;37.140;2023-08-20T00:27:19;13.07;;;8.85;;
40609;SDS011;26316;55.976;37.140;2023-08-20T00:29:46;14.65;;;9.05;;
40609;SDS011;26316;55.976;37.140;2023-08-20T00:32:12;12.70;;;8.23;;
40609;SDS011;26316;55.976;37.140;2023-08-20T00:34:40;14.70;;;8.10;;
40609;SDS011;26316;55.976;37.140;2023-08-20T00:37:06;11.95;;;8.57;;
40609;SDS011;26316;55.976;37.140;2023-08-20T00:39:31;11.90;;;8.68;;
40609;SDS011;26316;55.976;37.140;2023-08-20T00:41:58;13.57;;;8.68;;
40609;SDS011;26316;55.976;37.140;2023-08-20T00:44:24;12.40;;;8.77;;
40609;SDS011;26316;55.976;37.140;2023-08-20T00:46:50;13.63;;;8.43;;
40609;SDS011;26316;55.976;37.140;2023-08-20T00:49:16;12.00;;;8.23;;
40609;SDS011;26316;55.976;37.140;2023-08-20T00:51:42;14.23;;;8.70;;
40609;SDS011;26316;55.976;37.140;2023-08-20T00:54:08;9.25;;;7.65;;
40609;SDS011;26316;55.976;37.140;2023-08-20T00:56:35;9.95;;;7.90;;
40609;SDS011;26316;55.976;37.140;2023-08-20T00:59:01;10.70;;;7.88;;
40609;SDS011;26316;55.976;37.140;2023-08-20T01:01:27;9.98;;;8.30;;
40609;SDS011;26316;55.976;37.140;2023-08-20T01:03:52;19.05;;;9.07;;
40609;SDS011;26316;55.976;37.140;2023-08-20T01:11:49;10.93;;;8.93;;
40609;SDS011;26316;55.976;37.140;2023-08-20T01:14:20;10.23;;;8.90;;
40609;SDS011;26316;55.976;37.140;2023-08-20T01:16:47;15.55;;;9.48;;
40609;SDS011;26316;55.976;37.140;2023-08-20T01:19:16;12.50;;;9.02;;
40609;SDS011;26316;55.976;37.140;2023-08-20T01:29:39;11.10;;;8.93;;
40609;SDS011;26316;55.976;37.140;2023-08-20T01:32:04;10.80;;;8.85;;
40609;SDS011;26316;55.976;37.140;2023-08-20T01:34:30;13.18;;;8.85;;
40609;SDS011;26316;55.976;37.140;2023-08-20T01:36:56;9.45;;;7.93;;
40609;SDS011;26316;55.976;37.140;2023-08-20T01:39:22;11.18;;;8.57;;
40609;SDS011;26316;55.976;37.140;2023-08-20T01:41:48;9.65;;;8.13;;
40609;SDS011;26316;55.976;37.140;2023-08-20T01:44:14;9.07;;;8.13;;
40609;SDS011;26316;55.976;37.140;2023-08-20T01:46:40;9.82;;;7.60;;
40609;SDS011;26316;55.976;37.140;2023-08-20T01:49:06;9.63;;;8.63;;
40609;SDS011;26316;55.976;37.140;2023-08-20T01:51:32;11.95;;;8.15;;
40609;SDS011;26316;55.976;37.140;2023-08-20T01:53:58;9.05;;;7.68;;
40609;SDS011;26316;55.976;37.140;2023-08-20T01:56:24;9.68;;;8.68;;
40609;SDS011;26316;55.976;37.140;2023-08-20T01:58:49;9.88;;;8.60;;
40609;SDS011;26316;55.976;37.140;2023-08-20T02:01:15;12.00;;;7.68;;
40609;SDS011;26316;55.976;37.140;2023-08-20T02:03:41;11.02;;;7.47;;
40609;SDS011;26316;55.976;37.140;2023-08-20T02:06:06;10.27;;;7.10;;
40609;SDS011;26316;55.976;37.140;2023-08-20T02:08:32;10.25;;;7.90;;
40609;SDS011;26316;55.976;37.140;2023-08-20T02:11:00;10.55;;;7.53;;
40609;SDS011;26316;55.976;37.140;2023-08-20T02:13:30;30.10;;;21.92;;
40609;SDS011;26316;55.976;37.140;2023-08-20T02:15:57;14.65;;;9.45;;
40609;SDS011;26316;55.976;37.140;2023-08-20T02:18:49;14.77;;;9.77;;
40609;SDS011;26316;55.976;37.140;2023-08-20T02:21:15;12.25;;;10.35;;
40609;SDS011;26316;55.976;37.140;2023-08-20T02:23:40;13.18;;;10.60;;
40609;SDS011;26316;55.976;37.140;2023-08-20T02:26:06;12.63;;;10.18;;
40609;SDS011;26316;55.976;37.140;2023-08-20T02:28:33;15.90;;;10.88;;
40609;SDS011;26316;55.976;37.140;2023-08-20T02:31:01;15.68;;;11.88;;
40609;SDS011;26316;55.976;37.140;2023-08-20T02:33:29;14.75;;;11.73;;
40609;SDS011;26316;55.976;37.140;2023-08-20T02:35:55;15.75;;;11.45;;
40609;SDS011;26316;55.976;37.140;2023-08-20T02:38:21;15.70;;;11.00;;
40609;SDS011;26316;55.976;37.140;2023-08-20T02:40:47;19.95;;;11.90;;
40609;SDS011;26316;55.976;37.140;2023-08-20T02:43:13;12.98;;;10.32;;
40609;SDS011;26316;55.976;37.140;2023-08-20T02:45:42;13.85;;;10.88;;
40609;SDS011;26316;55.976;37.140;2023-08-20T02:48:07;21.13;;;10.20;;
40609;SDS011;26316;55.976;37.140;2023-08-20T02:50:34;13.27;;;10.48;;
40609;SDS011;26316;55.976;37.140;2023-08-20T02:52:59;19.10;;;10.32;;
40609;SDS011;26316;55.976;37.140;2023-08-20T02:55:25;14.30;;;9.82;;
40609;SDS011;26316;55.976;37.140;2023-08-20T02:57:51;11.55;;;9.57;;
40609;SDS011;26316;55.976;37.140;2023-08-20T03:00:16;10.65;;;9.52;;
40609;SDS011;26316;55.976;37.140;2023-08-20T03:02:42;17.02;;;9.38;;
40609;SDS011;26316;55.976;37.140;2023-08-20T03:05:09;15.65;;;9.57;;
40609;SDS011;26316;55.976;37.140;2023-08-20T03:07:35;10.82;;;9.18;;
40609;SDS011;26316;55.976;37.140;2023-08-20T03:10:01;11.65;;;8.73;;
40609;SDS011;26316;55.976;37.140;2023-08-20T03:12:29;15.10;;;10.20;;
40609;SDS011;26316;55.976;37.140;2023-08-20T03:14:55;16.55;;;9.45;;
40609;SDS011;26316;55.976;37.140;2023-08-20T03:17:21;10.43;;;9.35;;
40609;SDS011;26316;55.976;37.140;2023-08-20T03:19:56;10.00;;;9.00;;
40609;SDS011;26316;55.976;37.140;2023-08-20T03:22:23;11.20;;;8.98;;
40609;SDS011;26316;55.976;37.140;2023-08-20T03:24:50;13.85;;;9.30;;
40609;SDS011;26316;55.976;37.140;2023-08-20T03:27:16;12.30;;;7.97;;
40609;SDS011;26316;55.976;37.140;2023-08-20T03:29:43;12.65;;;8.27;;
40609;SDS011;26316;55.976;37.140;2023-08-20T03:32:10;14.38;;;9.15;;
40609;SDS011;26316;55.976;37.140;2023-08-20T03:34:36;13.00;;;8.40;;
40609;SDS011;26316;55.976;37.140;2023-08-20T03:37:02;14.10;;;8.15;;
40609;SDS011;26316;55.976;37.140;2023-08-20T03:39:28;10.65;;;7.53;;
40609;SDS011;26316;55.976;37.140;2023-08-20T03:41:54;13.57;;;8.48;;
40609;SDS011;26316;55.976;37.140;2023-08-20T03:44:19;14.90;;;8.88;;
40609;SDS011;26316;55.976;37.140;2023-08-20T03:46:45;9.93;;;8.02;;
40609;SDS011;26316;55.976;37.140;2023-08-20T03:49:12;9.68;;;7.72;;
40609;SDS011;26316;55.976;37.140;2023-08-20T03:51:38;11.90;;;7.75;;
40609;SDS011;26316;55.976;37.140;2023-08-20T03:54:04;9.15;;;8.23;;
40609;SDS011;26316;55.976;37.140;2023-08-20T03:56:30;10.93;;;8.30;;
40609;SDS011;26316;55.976;37.140;2023-08-20T03:58:55;9.68;;;7.65;;
40609;SDS011;26316;55.976;37.140;2023-08-20T04:01:21;9.27;;;7.68;;
40609;SDS011;26316;55.976;37.140;2023-08-20T04:03:47;11.18;;;8.20;;
40609;SDS011;26316;55.976;37.140;2023-08-20T04:06:14;11.65;;;8.32;;
40609;SDS011;26316;55.976;37.140;2023-08-20T04:08:40;12.52;;;8.80;;
40609;SDS011;26316;55.976;37.140;2023-08-20T04:11:06;10.38;;;8.55;;
40609;SDS011;26316;55.976;37.140;2023-08-20T04:13:32;9.13;;;7.68;;
40609;SDS011;26316;55.976;37.140;2023-08-20T04:15:58;11.75;;;7.85;;
40609;SDS011;26316;55.976;37.140;2023-08-20T04:18:23;10.70;;;8.38;;
40609;SDS011;26316;55.976;37.140;2023-08-20T04:20:50;10.40;;;8.52;;
40609;SDS011;26316;55.976;37.140;2023-08-20T04:23:16;8.65;;;7.75;;
40609;SDS011;26316;55.976;37.140;2023-08-20T04:25:42;8.63;;;7.80;;
40609;SDS011;26316;55.976;37.140;2023-08-20T04:28:08;13.55;;;8.00;;
40609;SDS011;26316;55.976;37.140;2023-08-20T04:30:34;9.48;;;7.90;;
40609;SDS011;26316;55.976;37.140;2023-08-20T04:33:00;11.48;;;8.10;;
40609;SDS011;26316;55.976;37.140;2023-08-20T04:35:27;9.15;;;7.68;;
40609;SDS011;26316;55.976;37.140;2023-08-20T04:37:53;9.98;;;8.27;;
40609;SDS011;26316;55.976;37.140;2023-08-20T04:40:19;12.32;;;8.38;;
40609;SDS011;26316;55.976;37.140;2023-08-20T04:42:45;11.45;;;8.60;;
40609;SDS011;26316;55.976;37.140;2023-08-20T04:45:11;9.43;;;8.45;;
40609;SDS011;26316;55.976;37.140;2023-08-20T04:47:38;9.32;;;8.20;;
40609;SDS011;26316;55.976;37.140;2023-08-20T04:50:04;11.30;;;8.43;;
40609;SDS011;26316;55.976;37.140;2023-08-20T04:52:33;12.55;;;8.73;;
40609;SDS011;26316;55.976;37.140;2023-08-20T04:54:59;11.40;;;9.15;;
40609;SDS011;26316;55.976;37.140;2023-08-20T04:57:30;9.60;;;8.48;;
40609;SDS011;26316;55.976;37.140;2023-08-20T04:59:56;14.82;;;8.95;;
40609;SDS011;26316;55.976;37.140;2023-08-20T05:02:22;9.20;;;7.68;;
40609;SDS011;26316;55.976;37.140;2023-08-20T05:04:53;8.75;;;7.90;;
40609;SDS011;26316;55.976;37.140;2023-08-20T05:07:19;9.73;;;8.27;;
40609;SDS011;26316;55.976;37.140;2023-08-20T05:09:44;12.38;;;8.38;;
40609;SDS011;26316;55.976;37.140;2023-08-20T05:12:10;9.48;;;8.20;;
40609;SDS011;26316;55.976;37.140;2023-08-20T05:14:36;11.45;;;8.10;;
40609;SDS011;26316;55.976;37.140;2023-08-20T05:17:01;11.40;;;7.95;;
40609;SDS011;26316;55.976;37.140;2023-08-20T05:19:27;8.80;;;7.97;;
40609;SDS011;26316;55.976;37.140;2023-08-20T05:21:53;7.63;;;6.82;;
40609;SDS011;26316;55.976;37.140;2023-08-20T05:24:24;11.50;;;7.72;;
40609;SDS011;26316;55.976;37.140;2023-08-20T05:27:10;11.80;;;7.20;;
40609;SDS011;26316;55.976;37.140;2023-08-20T05:29:40;7.75;;;6.80;;
40609;SDS011;26316;55.976;37.140;2023-08-20T05:32:07;16.50;;;6.70;;
40609;SDS011;26316;55.976;37.140;2023-08-20T05:34:33;13.82;;;6.35;;
40609;SDS011;26316;55.976;37.140;2023-08-20T05:36:59;11.77;;;6.45;;
40609;SDS011;26316;55.976;37.140;2023-08-20T05:39:25;18.00;;;6.47;;
40609;SDS011;26316;55.976;37.140;2023-08-20T05:41:52;7.03;;;6.10;;
40609;SDS011;26316;55.976;37.140;2023-08-20T05:44:21;12.35;;;9.52;;
40609;SDS011;26316;55.976;37.140;2023-08-20T05:46:48;14.52;;;7.55;;
40609;SDS011;26316;55.976;37.140;2023-08-20T05:49:14;9.23;;;6.40;;
40609;SDS011;26316;55.976;37.140;2023-08-20T05:51:42;6.32;;;5.72;;
40609;SDS011;26316;55.976;37.140;2023-08-20T05:54:09;5.90;;;5.40;;
40609;SDS011;26316;55.976;37.140;2023-08-20T05:56:35;10.23;;;5.53;;
40609;SDS011;26316;55.976;37.140;2023-08-20T05:59:00;6.50;;;5.05;;
40609;SDS011;26316;55.976;37.140;2023-08-20T06:01:26;5.50;;;5.05;;
40609;SDS011;26316;55.976;37.140;2023-08-20T06:03:52;6.03;;;5.00;;
40609;SDS011;26316;55.976;37.140;2023-08-20T06:06:18;5.85;;;5.25;;
40609;SDS011;26316;55.976;37.140;2023-08-20T06:08:44;7.78;;;5.70;;
40609;SDS011;26316;55.976;37.140;2023-08-20T06:11:09;5.53;;;5.03;;
40609;SDS011;26316;55.976;37.140;2023-08-20T06:13:35;6.78;;;5.18;;
40609;SDS011;26316;55.976;37.140;2023-08-20T06:16:00;5.32;;;4.82;;
40609;SDS011;26316;55.976;37.140;2023-08-20T06:18:26;4.47;;;4.18;;
40609;SDS011;26316;55.976;37.140;2023-08-20T06:20:52;5.18;;;4.68;;
40609;SDS011;26316;55.976;37.140;2023-08-20T06:23:17;6.72;;;5.00;;
40609;SDS011;26316;55.976;37.140;2023-08-20T06:25:43;5.55;;;4.15;;
40609;SDS011;26316;55.976;37.140;2023-08-20T06:28:09;7.45;;;4.93;;
40609;SDS011;26316;55.976;37.140;2023-08-20T06:30:37;7.00;;;5.70;;
40609;SDS011;26316;55.976;37.140;2023-08-20T06:33:03;6.15;;;5.45;;
40609;SDS011;26316;55.976;37.140;2023-08-20T06:35:29;6.68;;;5.60;;
40609;SDS011;26316;55.976;37.140;2023-08-20T06:37:55;5.43;;;4.93;;
40609;SDS011;26316;55.976;37.140;2023-08-20T06:40:20;5.93;;;5.43;;
40609;SDS011;26316;55.976;37.140;2023-08-20T06:42:46;5.65;;;4.82;;
40609;SDS011;26316;55.976;37.140;2023-08-20T06:45:12;6.43;;;5.50;;
40609;SDS011;26316;55.976;37.140;2023-08-20T06:47:37;7.53;;;5.25;;
40609;SDS011;26316;55.976;37.140;2023-08-20T06:50:03;5.28;;;4.80;;
40609;SDS011;26316;55.976;37.140;2023-08-20T06:52:30;5.38;;;4.88;;
40609;SDS011;26316;55.976;37.140;2023-08-20T06:54:55;6.15;;;4.57;;
40609;SDS011;26316;55.976;37.140;2023-08-20T06:57:22;5.40;;;4.90;;
40609;SDS011;26316;55.976;37.140;2023-08-20T06:59:47;5.75;;;5.05;;
40609;SDS011;26316;55.976;37.140;2023-08-20T07:02:13;6.28;;;4.63;;
40609;SDS011;26316;55.976;37.140;2023-08-20T07:04:39;7.57;;;4.70;;
40609;SDS011;26316;55.976;37.140;2023-08-20T07:07:04;5.35;;;4.53;;
40609;SDS011;26316;55.976;37.140;2023-08-20T07:09:30;5.90;;;4.60;;
40609;SDS011;26316;55.976;37.140;2023-08-20T07:11:56;6.93;;;4.97;;
40609;SDS011;26316;55.976;37.140;2023-08-20T07:14:22;4.43;;;4.10;;
40609;SDS011;26316;55.976;37.140;2023-08-20T07:16:47;5.15;;;4.65;;
40609;SDS011;26316;55.976;37.140;2023-08-20T07:19:13;5.22;;;4.80;;
40609;SDS011;26316;55.976;37.140;2023-08-20T07:21:39;5.38;;;4.88;;
40609;SDS011;26316;55.976;37.140;2023-08-20T07:24:04;5.60;;;4.03;;
40609;SDS011;26316;55.976;37.140;2023-08-20T07:26:30;7.60;;;4.60;;
40609;SDS011;26316;55.976;37.140;2023-08-20T07:28:56;5.07;;;4.30;;
40609;SDS011;26316;55.976;37.140;2023-08-20T07:31:26;5.18;;;4.55;;
40609;SDS011;26316;55.976;37.140;2023-08-20T07:33:53;8.05;;;4.95;;
40609;SDS011;26316;55.976;37.140;2023-08-20T07:36:20;8.40;;;7.18;;
40609;SDS011;26316;55.976;37.140;2023-08-20T07:38:50;7.80;;;6.23;;
40609;SDS011;26316;55.976;37.140;2023-08-20T07:41:16;6.57;;;4.85;;
40609;SDS011;26316;55.976;37.140;2023-08-20T07:43:42;8.38;;;7.47;;
40609;SDS011;26316;55.976;37.140;2023-08-20T07:46:08;10.75;;;8.98;;
40609;SDS011;26316;55.976;37.140;2023-08-20T07:48:34;18.00;;;12.65;;
40609;SDS011;26316;55.976;37.140;2023-08-20T07:51:04;16.30;;;13.07;;
40609;SDS011;26316;55.976;37.140;2023-08-20T07:53:30;13.15;;;10.77;;
40609;SDS011;26316;55.976;37.140;2023-08-20T07:55:56;11.70;;;10.30;;
40609;SDS011;26316;55.976;37.140;2023-08-20T07:58:22;15.55;;;10.32;;
40609;SDS011;26316;55.976;37.140;2023-08-20T08:00:48;16.30;;;12.63;;
40609;SDS011;26316;55.976;37.140;2023-08-20T08:03:13;22.17;;;17.08;;
40609;SDS011;26316;55.976;37.140;2023-08-20T08:05:52;23.98;;;16.13;;
40609;SDS011;26316;55.976;37.140;2023-08-20T08:08:19;20.50;;;13.73;;
40609;SDS011;26316;55.976;37.140;2023-08-20T08:10:46;14.00;;;10.30;;
40609;SDS011;26316;55.976;37.140;2023-08-20T08:13:15;19.73;;;11.30;;
40609;SDS011;26316;55.976;37.140;2023-08-20T08:15:43;12.70;;;10.32;;
40609;SDS011;26316;55.976;37.140;2023-08-20T08:18:09;11.50;;;9.00;;
40609;SDS011;26316;55.976;37.140;2023-08-20T08:20:35;13.57;;;8.43;;
40609;SDS011;26316;55.976;37.140;2023-08-20T08:23:01;7.65;;;6.93;;
40609;SDS011;26316;55.976;37.140;2023-08-20T08:25:27;17.60;;;8.65;;
40609;SDS011;26316;55.976;37.140;2023-08-20T08:27:53;8.38;;;7.00;;
40609;SDS011;26316;55.976;37.140;2023-08-20T08:30:19;11.68;;;6.32;;
40609;SDS011;26316;55.976;37.140;2023-08-20T08:32:45;9.80;;;6.45;;
40609;SDS011;26316;55.976;37.140;2023-08-20T08:35:10;7.25;;;5.45;;
40609;SDS011;26316;55.976;37.140;2023-08-20T08:37:36;4.75;;;4.35;;
40609;SDS011;26316;55.976;37.140;2023-08-20T08:40:03;5.20;;;4.10;;
40609;SDS011;26316;55.976;37.140;2023-08-20T08:42:32;4.35;;;4.00;;
40609;SDS011;26316;55.976;37.140;2023-08-20T08:44:59;4.45;;;4.03;;
40609;SDS011;26316;55.976;37.140;2023-08-20T08:47:26;4.45;;;4.07;;
40609;SDS011;26316;55.976;37.140;2023-08-20T08:49:52;6.68;;;4.57;;
40609;SDS011;26316;55.976;37.140;2023-08-20T08:52:21;6.95;;;4.00;;
40609;SDS011;26316;55.976;37.140;2023-08-20T08:54:47;4.50;;;3.03;;
40609;SDS011;26316;55.976;37.140;2023-08-20T08:57:14;5.55;;;3.88;;
40609;SDS011;26316;55.976;37.140;2023-08-20T08:59:40;8.73;;;3.92;;
40609;SDS011;26316;55.976;37.140;2023-08-20T09:02:07;5.85;;;4.40;;
40609;SDS011;26316;55.976;37.140;2023-08-20T09:04:34;8.60;;;3.78;;
40609;SDS011;26316;55.976;37.140;2023-08-20T09:07:02;5.80;;;3.80;;
40609;SDS011;26316;55.976;37.140;2023-08-20T09:09:29;8.02;;;4.32;;
40609;SDS011;26316;55.976;37.140;2023-08-20T09:11:55;13.13;;;5.10;;
40609;SDS011;26316;55.976;37.140;2023-08-20T09:14:24;8.43;;;4.80;;
40609;SDS011;26316;55.976;37.140;2023-08-20T09:16:54;10.18;;;4.75;;
40609;SDS011;26316;55.976;37.140;2023-08-20T09:19:21;7.90;;;4.88;;
40609;SDS011;26316;55.976;37.140;2023-08-20T09:21:46;7.22;;;4.32;;
40609;SDS011;26316;55.976;37.140;2023-08-20T09:24:14;6.88;;;4.10;;
40609;SDS011;26316;55.976;37.140;2023-08-20T09:26:39;3.90;;;3.60;;
40609;SDS011;26316;55.976;37.140;2023-08-20T09:29:05;4.63;;;3.30;;
40609;SDS011;26316;55.976;37.140;2023-08-20T09:31:37;4.20;;;3.80;;
40609;SDS011;26316;55.976;37.140;2023-08-20T09:34:04;3.70;;;3.40;;
40609;SDS011;26316;55.976;37.140;2023-08-20T09:36:33;5.45;;;3.20;;
40609;SDS011;26316;55.976;37.140;2023-08-20T09:39:01;5.03;;;3.75;;
40609;SDS011;26316;55.976;37.140;2023-08-20T09:41:28;3.47;;;2.95;;
40609;SDS011;26316;55.976;37.140;2023-08-20T09:43:57;4.68;;;3.38;;
40609;SDS011;26316;55.976;37.140;2023-08-20T09:46:24;4.82;;;3.40;;
40609;SDS011;26316;55.976;37.140;2023-08-20T09:48:55;6.70;;;3.53;;
40609;SDS011;26316;55.976;37.140;2023-08-20T09:51:25;8.23;;;3.25;;
40609;SDS011;26316;55.976;37.140;2023-08-20T09:53:58;3.50;;;3.15;;
40609;SDS011;26316;55.976;37.140;2023-08-20T09:56:30;6.45;;;3.30;;
40609;SDS011;26316;55.976;37.140;2023-08-20T09:59:00;4.63;;;2.88;;
40609;SDS011;26316;55.976;37.140;2023-08-20T10:03:52;3.05;;;2.60;;
40609;SDS011;26316;55.976;37.140;2023-08-20T10:06:17;3.47;;;2.83;;
40609;SDS011;26316;55.976;37.140;2023-08-20T10:08:44;4.07;;;2.83;;
40609;SDS011;26316;55.976;37.140;2023-08-20T10:11:12;5.65;;;2.83;;
40609;SDS011;26316;55.976;37.140;2023-08-20T10:13:38;2.70;;;2.50;;
40609;SDS011;26316;55.976;37.140;2023-08-20T10:16:04;3.22;;;2.90;;
40609;SDS011;26316;55.976;37.140;2023-08-20T10:18:30;3.10;;;2.80;;
40609;SDS011;26316;55.976;37.140;2023-08-20T10:20:57;3.05;;;2.67;;
40609;SDS011;26316;55.976;37.140;2023-08-20T10:23:24;4.05;;;2.70;;
40609;SDS011;26316;55.976;37.140;2023-08-20T10:25:53;5.63;;;3.00;;
40609;SDS011;26316;55.976;37.140;2023-08-20T10:28:20;2.83;;;2.50;;
40609;SDS011;26316;55.976;37.140;2023-08-20T10:33:29;2.53;;;2.33;;
40609;SDS011;26316;55.976;37.140;2023-08-20T10:35:55;2.88;;;2.67;;
40609;SDS011;26316;55.976;37.140;2023-08-20T10:38:21;3.22;;;3.00;;
40609;SDS011;26316;55.976;37.140;2023-08-20T10:40:57;3.65;;;3.35;;
40609;SDS011;26316;55.976;37.140;2023-08-20T10:48:29;4.70;;;3.13;;
40609;SDS011;26316;55.976;37.140;2023-08-20T10:50:56;2.80;;;2.60;;
40609;SDS011;26316;55.976;37.140;2023-08-20T10:53:22;8.63;;;3.22;;
40609;SDS011;26316;55.976;37.140;2023-08-20T10:55:48;2.90;;;2.70;;
40609;SDS011;26316;55.976;37.140;2023-08-20T10:58:15;6.82;;;3.28;;
40609;SDS011;26316;55.976;37.140;2023-08-20T11:00:41;3.65;;;3.35;;
40609;SDS011;26316;55.976;37.140;2023-08-20T11:03:08;3.65;;;3.35;;
40609;SDS011;26316;55.976;37.140;2023-08-20T11:05:34;4.82;;;3.05;;
40609;SDS011;26316;55.976;37.140;2023-08-20T11:07:59;3.92;;;3.33;;
40609;SDS011;26316;55.976;37.140;2023-08-20T11:10:25;3.95;;;3.60;;
40609;SDS011;26316;55.976;37.140;2023-08-20T11:12:51;4.07;;;3.83;;
40609;SDS011;26316;55.976;37.140;2023-08-20T11:15:17;3.67;;;3.38;;
40609;SDS011;26316;55.976;37.140;2023-08-20T11:17:44;4.05;;;3.70;;
40609;SDS011;26316;55.976;37.140;2023-08-20T11:20:11;3.75;;;3.45;;
40609;SDS011;26316;55.976;37.140;2023-08-20T11:22:39;4.00;;;3.70;;
40609;SDS011;26316;55.976;37.140;2023-08-20T11:25:10;3.95;;;3.65;;
40609;SDS011;26316;55.976;37.140;2023-08-20T11:27:40;6.07;;;3.72;;
40609;SDS011;26316;55.976;37.140;2023-08-20T11:32:32;13.32;;;5.60;;
40609;SDS011;26316;55.976;37.140;2023-08-20T11:34:58;10.02;;;5.07;;
40609;SDS011;26316;55.976;37.140;2023-08-20T11:37:24;6.53;;;5.45;;
40609;SDS011;26316;55.976;37.140;2023-08-20T11:39:50;8.73;;;5.75;;
40609;SDS011;26316;55.976;37.140;2023-08-20T11:42:16;8.23;;;5.80;;
40609;SDS011;26316;55.976;37.140;2023-08-20T11:44:42;8.65;;;5.53;;
40609;SDS011;26316;55.976;37.140;2023-08-20T11:47:13;9.32;;;6.80;;
40609;SDS011;26316;55.976;37.140;2023-08-20T11:49:40;11.27;;;7.05;;
40609;SDS011;26316;55.976;37.140;2023-08-20T11:52:06;9.88;;;7.03;;
40609;SDS011;26316;55.976;37.140;2023-08-20T11:54:31;6.75;;;6.05;;
40609;SDS011;26316;55.976;37.140;2023-08-20T11:57:01;7.70;;;6.10;;
40609;SDS011;26316;55.976;37.140;2023-08-20T11:59:28;6.75;;;5.90;;
40609;SDS011;26316;55.976;37.140;2023-08-20T12:01:58;7.72;;;5.80;;
40609;SDS011;26316;55.976;37.140;2023-08-20T12:04:26;7.25;;;5.57;;
40609;SDS011;26316;55.976;37.140;2023-08-20T12:09:30;5.55;;;5.05;;
40609;SDS011;26316;55.976;37.140;2023-08-20T12:11:56;5.75;;;5.15;;
40609;SDS011;26316;55.976;37.140;2023-08-20T12:14:23;5.82;;;5.20;;
40609;SDS011;26316;55.976;37.140;2023-08-20T12:16:49;5.97;;;5.43;;
40609;SDS011;26316;55.976;37.140;2023-08-20T12:19:18;5.75;;;5.05;;
40609;SDS011;26316;55.976;37.140;2023-08-20T12:21:43;5.70;;;5.15;;
40609;SDS011;26316;55.976;37.140;2023-08-20T12:24:10;5.32;;;5.00;;
40609;SDS011;26316;55.976;37.140;2023-08-20T12:26:36;7.45;;;5.20;;
40609;SDS011;26316;55.976;37.140;2023-08-20T12:29:02;6.05;;;5.38;;
40609;SDS011;26316;55.976;37.140;2023-08-20T12:31:28;6.10;;;5.60;;
40609;SDS011;26316;55.976;37.140;2023-08-20T12:33:54;5.18;;;4.88;;
40609;SDS011;26316;55.976;37.140;2023-08-20T12:36:20;6.75;;;5.28;;
40609;SDS011;26316;55.976;37.140;2023-08-20T12:38:45;5.90;;;5.40;;
40609;SDS011;26316;55.976;37.140;2023-08-20T12:41:11;5.85;;;5.40;;
40609;SDS011;26316;55.976;37.140;2023-08-20T12:43:37;5.82;;;5.32;;
40609;SDS011;26316;55.976;37.140;2023-08-20T12:46:03;5.68;;;5.18;;
40609;SDS011;26316;55.976;37.140;2023-08-20T12:48:29;5.68;;;5.20;;
40609;SDS011;26316;55.976;37.140;2023-08-20T12:50:55;8.13;;;5.25;;
40609;SDS011;26316;55.976;37.140;2023-08-20T12:53:21;5.85;;;5.35;;
40609;SDS011;26316;55.976;37.140;2023-08-20T12:55:47;5.85;;;5.28;;
40609;SDS011;26316;55.976;37.140;2023-08-20T12:58:13;5.53;;;4.95;;
40609;SDS011;26316;55.976;37.140;2023-08-20T13:00:39;5.75;;;5.25;;
40609;SDS011;26316;55.976;37.140;2023-08-20T13:03:05;8.57;;;6.28;;
40609;SDS011;26316;55.976;37.140;2023-08-20T13:05:31;6.85;;;6.25;;
40609;SDS011;26316;55.976;37.140;2023-08-20T13:07:57;10.15;;;6.82;;
40609;SDS011;26316;55.976;37.140;2023-08-20T13:10:23;7.18;;;6.25;;
40609;SDS011;26316;55.976;37.140;2023-08-20T13:12:52;6.78;;;6.20;;
40609;SDS011;26316;55.976;37.140;2023-08-20T13:17:48;10.70;;;6.50;;
40609;SDS011;26316;55.976;37.140;2023-08-20T13:20:15;7.15;;;6.35;;
40609;SDS011;26316;55.976;37.140;2023-08-20T13:22:47;6.65;;;5.93;;
40609;SDS011;26316;55.976;37.140;2023-08-20T13:25:13;7.47;;;6.70;;
40609;SDS011;26316;55.976;37.140;2023-08-20T13:27:40;6.50;;;5.78;;
40609;SDS011;26316;55.976;37.140;2023-08-20T13:30:07;7.93;;;6.40;;
40609;SDS011;26316;55.976;37.140;2023-08-20T13:32:36;7.53;;;5.80;;
40609;SDS011;26316;55.976;37.140;2023-08-20T13:35:02;7.00;;;6.30;;
40609;SDS011;26316;55.976;37.140;2023-08-20T13:37:31;6.80;;;5.28;;
40609;SDS011;26316;55.976;37.140;2023-08-20T13:39:57;5.60;;;5.20;;
40609;SDS011;26316;55.976;37.140;2023-08-20T13:42:24;6.50;;;5.93;;
40609;SDS011;26316;55.976;37.140;2023-08-20T13:44:49;5.93;;;5.30;;
40609;SDS011;26316;55.976;37.140;2023-08-20T13:47:15;6.22;;;5.65;;
40609;SDS011;26316;55.976;37.140;2023-08-20T13:49:41;6.85;;;6.18;;
40609;SDS011;26316;55.976;37.140;2023-08-20T13:52:07;6.07;;;5.53;;
40609;SDS011;26316;55.976;37.140;2023-08-20T13:54:34;6.55;;;5.78;;
40609;SDS011;26316;55.976;37.140;2023-08-20T13:57:00;6.68;;;6.00;;
40609;SDS011;26316;55.976;37.140;2023-08-20T13:59:26;6.20;;;5.60;;
40609;SDS011;26316;55.976;37.140;2023-08-20T14:01:52;7.60;;;6.15;;
40609;SDS011;26316;55.976;37.140;2023-08-20T14:04:17;6.53;;;5.93;;
40609;SDS011;26316;55.976;37.140;2023-08-20T14:06:43;7.82;;;6.03;;
40609;SDS011;26316;55.976;37.140;2023-08-20T14:09:09;6.90;;;5.75;;
40609;SDS011;26316;55.976;37.140;2023-08-20T14:11:35;5.95;;;5.35;;
40609;SDS011;26316;55.976;37.140;2023-08-20T14:14:00;6.10;;;5.60;;
40609;SDS011;26316;55.976;37.140;2023-08-20T14:16:26;7.05;;;6.25;;
40609;SDS011;26316;55.976;37.140;2023-08-20T14:18:52;6.22;;;5.72;;
40609;SDS011;26316;55.976;37.140;2023-08-20T14:21:17;5.85;;;5.35;;
40609;SDS011;26316;55.976;37.140;2023-08-20T14:23:43;6.60;;;6.00;;
40609;SDS011;26316;55.976;37.140;2023-08-20T14:26:09;7.72;;;5.90;;
40609;SDS011;26316;55.976;37.140;2023-08-20T14:28:36;6.88;;;5.63;;
40609;SDS011;26316;55.976;37.140;2023-08-20T14:31:02;5.55;;;5.13;;
40609;SDS011;26316;55.976;37.140;2023-08-20T14:33:29;7.05;;;5.07;;
40609;SDS011;26316;55.976;37.140;2023-08-20T14:35:57;5.88;;;5.38;;
40609;SDS011;26316;55.976;37.140;2023-08-20T14:38:23;7.30;;;5.40;;
40609;SDS011;26316;55.976;37.140;2023-08-20T14:40:49;9.32;;;5.93;;
40609;SDS011;26316;55.976;37.140;2023-08-20T14:43:14;6.55;;;5.35;;
40609;SDS011;26316;55.976;37.140;2023-08-20T14:45:40;5.97;;;5.38;;
40609;SDS011;26316;55.976;37.140;2023-08-20T14:48:06;6.78;;;5.70;;
40609;SDS011;26316;55.976;37.140;2023-08-20T14:50:32;5.50;;;5.00;;
40609;SDS011;26316;55.976;37.140;2023-08-20T14:52:58;8.00;;;5.65;;
40609;SDS011;26316;55.976;37.140;2023-08-20T14:55:24;5.88;;;5.20;;